createdAt,value
2018-03-31T00:00:10.423Z,94990.30
2018-03-31T00:02:37.361Z,94987.50
2018-03-31T00:05:04.079Z,94980.09
2018-03-31T00:07:30.815Z,94977.98
2018-03-31T00:09:57.451Z,94976.94
2018-03-31T00:12:24.126Z,94974.92
2018-03-31T00:14:50.803Z,94973.44
2018-03-31T00:17:17.598Z,94969.56
2018-03-31T00:19:44.227Z,94966.66
2018-03-31T00:22:11.022Z,94961.98
2018-03-31T00:24:37.645Z,94965.22
2018-03-31T00:27:04.409Z,94967.05
2018-03-31T00:29:33.224Z,94961.66
2018-03-31T00:31:58.053Z,94959.86
2018-03-31T00:34:24.720Z,94960.11
2018-03-31T00:36:51.397Z,94953.81
2018-03-31T00:39:18.188Z,94963.98
2018-03-31T00:41:45.203Z,94967.07
2018-03-31T00:44:11.868Z,94968.55
2018-03-31T00:46:38.529Z,94970.72
2018-03-31T00:49:05.233Z,94969.65
2018-03-31T00:51:31.992Z,94969.90
2018-03-31T00:53:58.776Z,94966.97
2018-03-31T00:56:25.465Z,94971.13
2018-03-31T00:58:53.513Z,94972.67
2018-03-31T01:01:18.776Z,94972.17
2018-03-31T01:03:45.482Z,94976.20
2018-03-31T01:06:12.213Z,94963.47
2018-03-31T01:08:38.845Z,94972.06
2018-03-31T01:11:05.508Z,94967.88
2018-03-31T01:13:32.194Z,94969.55
2018-03-31T01:15:58.927Z,94962.11
2018-03-31T01:18:25.614Z,94967.12
2018-03-31T01:20:52.237Z,94961.86
2018-03-31T01:23:18.925Z,94962.64
2018-03-31T01:25:45.633Z,94965.41
2018-03-31T01:28:12.373Z,94959.40
2018-03-31T01:30:39.036Z,94955.34
2018-03-31T01:33:05.751Z,94940.66
2018-03-31T01:35:32.488Z,94944.19
2018-03-31T01:37:59.118Z,94941.77
2018-03-31T01:40:26.970Z,94932.29
2018-03-31T01:42:53.575Z,94934.48
2018-03-31T01:45:20.302Z,94927.18
2018-03-31T01:47:46.941Z,94927.19
2018-03-31T01:50:13.608Z,94930.81
2018-03-31T01:52:40.252Z,94934.59
2018-03-31T01:55:06.860Z,94924.03
2018-03-31T01:57:33.532Z,94934.77
2018-03-31T02:00:00.234Z,94932.47
2018-03-31T02:02:26.862Z,94929.45
2018-03-31T02:04:53.602Z,94928.22
2018-03-31T02:07:20.220Z,94925.34
2018-03-31T02:09:46.852Z,94924.19
2018-03-31T02:12:13.486Z,94916.25
2018-03-31T02:14:40.123Z,94919.15
2018-03-31T02:17:06.802Z,94921.82
2018-03-31T02:19:33.400Z,94923.58
2018-03-31T02:22:00.152Z,94920.53
2018-03-31T02:24:28.844Z,94924.09
2018-03-31T02:26:53.351Z,94921.69
2018-03-31T02:29:20.025Z,94923.93
2018-03-31T02:31:46.708Z,94923.93
2018-03-31T02:34:13.380Z,94915.42
2018-03-31T02:36:39.977Z,94915.27
2018-03-31T02:39:06.724Z,94913.12
2018-03-31T02:41:36.740Z,94917.56
2018-03-31T02:44:03.393Z,94920.94
2018-03-31T02:46:30.072Z,94911.14
2018-03-31T02:48:56.869Z,94903.98
2018-03-31T02:51:23.448Z,94905.25
2018-03-31T02:53:50.043Z,94905.88
2018-03-31T02:56:16.694Z,94892.69
2018-03-31T02:58:43.336Z,94896.81
2018-03-31T03:01:10.109Z,94911.31
2018-03-31T03:03:43.353Z,94899.33
2018-03-31T03:06:09.960Z,94898.85
2018-03-31T03:08:36.633Z,94897.09
2018-03-31T03:11:04.564Z,94903.80
2018-03-31T03:13:29.959Z,94903.41
2018-03-31T03:15:56.652Z,94903.92
2018-03-31T03:18:23.290Z,94892.96
2018-03-31T03:20:49.893Z,94885.16
2018-03-31T03:23:16.533Z,94884.68
2018-03-31T03:25:43.316Z,94883.65
2018-03-31T03:28:10.051Z,94884.55
2018-03-31T03:30:36.671Z,94884.83
2018-03-31T03:33:03.301Z,94882.03
2018-03-31T03:35:30.077Z,94880.30
2018-03-31T03:37:56.684Z,94872.88
2018-03-31T03:40:23.349Z,94880.93
2018-03-31T03:42:50.090Z,94879.14
2018-03-31T03:45:16.686Z,94878.19
2018-03-31T03:47:43.376Z,94872.88
2018-03-31T03:50:10.015Z,94865.70
2018-03-31T03:52:36.646Z,94867.36
2018-03-31T03:55:03.256Z,94864.56
2018-03-31T03:57:29.992Z,94857.70
2018-03-31T03:59:56.740Z,94864.97
2018-03-31T04:02:23.371Z,94863.36
2018-03-31T04:04:50.065Z,94844.48
2018-03-31T04:07:16.753Z,94852.91
2018-03-31T04:09:43.433Z,94843.50
2018-03-31T04:12:10.035Z,94840.73
2018-03-31T04:14:36.773Z,94852.66
2018-03-31T04:17:03.417Z,94853.03
2018-03-31T04:19:30.060Z,94851.27
2018-03-31T04:21:56.692Z,94856.44
2018-03-31T04:24:23.487Z,94852.69
2018-03-31T04:26:50.142Z,94851.83
2018-03-31T04:29:16.856Z,94857.24
2018-03-31T04:31:46.612Z,94850.70
2018-03-31T04:34:15.168Z,94861.52
2018-03-31T04:36:39.922Z,94863.38
2018-03-31T04:39:06.642Z,94863.81
2018-03-31T04:41:33.235Z,94867.20
2018-03-31T04:43:59.988Z,94876.02
2018-03-31T04:46:26.661Z,94863.70
2018-03-31T04:48:53.297Z,94859.51
2018-03-31T04:51:22.929Z,94849.44
2018-03-31T04:53:49.570Z,94850.58
2018-03-31T04:56:16.290Z,94852.48
2018-03-31T04:58:42.963Z,94856.53
2018-03-31T05:01:12.480Z,94876.77
2018-03-31T05:03:39.118Z,94878.18
2018-03-31T05:06:05.801Z,94877.27
2018-03-31T05:08:32.411Z,94880.17
2018-03-31T05:10:59.046Z,94880.17
2018-03-31T05:13:25.700Z,94886.34
2018-03-31T05:15:52.360Z,94888.20
2018-03-31T05:18:19.012Z,94898.17
2018-03-31T05:20:48.937Z,94899.41
2018-03-31T05:23:15.630Z,94901.29
2018-03-31T05:25:42.315Z,94907.45
2018-03-31T05:28:09.082Z,94914.41
2018-03-31T05:30:38.523Z,94909.97
2018-03-31T05:33:05.231Z,94921.15
2018-03-31T05:35:31.864Z,94914.86
2018-03-31T05:37:58.509Z,94918.00
2018-03-31T05:40:25.248Z,94917.91
2018-03-31T05:42:51.880Z,94926.69
2018-03-31T05:45:18.485Z,94927.82
2018-03-31T05:47:45.203Z,94926.31
2018-03-31T05:50:15.278Z,94924.17
2018-03-31T05:52:43.310Z,94920.39
2018-03-31T05:55:08.598Z,94914.63
2018-03-31T05:57:35.333Z,94914.76
2018-03-31T06:00:02.030Z,94907.58
2018-03-31T06:02:28.740Z,94908.36
2018-03-31T06:04:59.220Z,94911.86
2018-03-31T06:07:24.878Z,94920.19
2018-03-31T06:09:51.472Z,94919.19
2018-03-31T06:12:19.442Z,94916.03
2018-03-31T06:14:44.810Z,94911.11
2018-03-31T06:17:11.527Z,94908.61
2018-03-31T06:19:38.128Z,94903.20
2018-03-31T06:22:06.137Z,94907.60
2018-03-31T06:24:31.473Z,94910.50
2018-03-31T06:27:01.048Z,94905.84
2018-03-31T06:29:27.760Z,94912.38
2018-03-31T06:31:54.426Z,94914.91
2018-03-31T06:34:21.099Z,94914.38
2018-03-31T06:36:47.748Z,94906.53
2018-03-31T06:39:14.351Z,94915.05
2018-03-31T06:41:41.031Z,94903.29
2018-03-31T06:44:07.679Z,94912.42
2018-03-31T06:46:34.391Z,94911.88
2018-03-31T06:49:00.992Z,94899.88
2018-03-31T06:51:27.833Z,94884.87
2018-03-31T06:53:54.473Z,94889.97
2018-03-31T06:56:21.188Z,94873.72
2018-03-31T06:58:47.851Z,94869.75
2018-03-31T07:01:14.513Z,94867.58
2018-03-31T07:03:41.205Z,94869.31
2018-03-31T07:06:07.855Z,94869.74
2018-03-31T07:08:34.495Z,94858.63
2018-03-31T07:11:01.160Z,94849.73
2018-03-31T07:13:29.064Z,94853.09
2018-03-31T07:15:55.799Z,94849.27
2018-03-31T07:18:25.853Z,94841.30
2018-03-31T07:20:53.745Z,94850.30
2018-03-31T07:23:19.215Z,94853.50
2018-03-31T07:25:48.663Z,94846.19
2018-03-31T07:28:15.329Z,94842.52
2018-03-31T07:30:41.965Z,94849.13
2018-03-31T07:33:08.604Z,94840.04
2018-03-31T07:35:35.236Z,94842.39
2018-03-31T07:38:01.905Z,94845.28
2018-03-31T07:40:28.592Z,94839.95
2018-03-31T07:42:55.239Z,94856.34
2018-03-31T07:45:21.888Z,94852.86
2018-03-31T07:47:48.630Z,94851.00
2018-03-31T07:50:15.274Z,94849.95
2018-03-31T07:52:42.264Z,94865.58
2018-03-31T07:55:11.901Z,94872.78
2018-03-31T07:57:41.987Z,94872.69
2018-03-31T08:00:08.684Z,94866.42
2018-03-31T08:02:35.390Z,94869.45
2018-03-31T08:05:01.960Z,94858.40
2018-03-31T08:07:28.732Z,94853.48
2018-03-31T08:09:55.406Z,94858.28
2018-03-31T08:12:22.090Z,94848.09
2018-03-31T08:14:50.139Z,94854.91
2018-03-31T08:17:15.357Z,94845.95
2018-03-31T08:19:42.099Z,94834.11
2018-03-31T08:22:08.724Z,94840.13
2018-03-31T08:24:35.372Z,94841.80
2018-03-31T08:27:02.074Z,94831.97
2018-03-31T08:29:28.831Z,94847.34
2018-03-31T08:31:55.470Z,94828.67
2018-03-31T08:34:22.155Z,94828.06
2018-03-31T08:36:48.833Z,94824.91
2018-03-31T08:39:15.458Z,94831.71
2018-03-31T08:41:42.188Z,94819.86
2018-03-31T08:44:08.806Z,94816.59
2018-03-31T08:46:35.411Z,94794.27
2018-03-31T08:49:02.089Z,94796.02
2018-03-31T08:51:28.704Z,94788.71
2018-03-31T08:53:55.368Z,94774.72
2018-03-31T08:56:22.014Z,94779.52
2018-03-31T08:58:48.690Z,94789.47
2018-03-31T09:01:15.344Z,94778.25
2018-03-31T09:03:41.979Z,94764.64
2018-03-31T09:06:09.625Z,94759.09
2018-03-31T09:08:36.286Z,94765.52
2018-03-31T09:11:02.993Z,94753.54
2018-03-31T09:13:29.683Z,94750.13
2018-03-31T09:15:56.313Z,94735.84
2018-03-31T09:18:23.175Z,94731.21
2018-03-31T09:20:49.809Z,94739.30
2018-03-31T09:23:16.463Z,94735.96
2018-03-31T09:25:43.100Z,94719.26
2018-03-31T09:28:09.724Z,94731.58
2018-03-31T09:30:36.409Z,94738.30
2018-03-31T09:33:03.049Z,94724.43
2018-03-31T09:35:29.753Z,94718.36
2018-03-31T09:37:56.366Z,94700.58
2018-03-31T09:40:23.070Z,94676.25
2018-03-31T09:42:49.699Z,94669.58
2018-03-31T09:45:16.300Z,94660.95
2018-03-31T09:47:46.211Z,94656.65
2018-03-31T09:50:12.929Z,94652.88
2018-03-31T09:52:39.566Z,94649.45
2018-03-31T09:55:06.186Z,94654.03
2018-03-31T09:57:32.844Z,94640.89
2018-03-31T09:59:59.531Z,94630.52
2018-03-31T10:02:26.170Z,94615.69
2018-03-31T10:04:52.806Z,94628.73
2018-03-31T10:07:19.515Z,94614.48
2018-03-31T10:09:46.185Z,94612.84
2018-03-31T10:12:12.813Z,94592.76
2018-03-31T10:14:40.820Z,94608.62
2018-03-31T10:17:06.085Z,94613.00
2018-03-31T10:19:32.716Z,94601.47
2018-03-31T10:21:59.358Z,94574.39
2018-03-31T10:24:25.997Z,94586.13
2018-03-31T10:26:52.641Z,94587.26
2018-03-31T10:29:19.284Z,94587.96
2018-03-31T10:31:45.901Z,94594.98
2018-03-31T10:34:12.539Z,94591.20
2018-03-31T10:36:39.173Z,94583.22
2018-03-31T10:39:05.857Z,94578.02
2018-03-31T10:41:33.884Z,94587.47
2018-03-31T10:43:59.157Z,94586.95
2018-03-31T10:46:25.798Z,94575.85
2018-03-31T10:48:52.487Z,94571.80
2018-03-31T10:51:19.089Z,94554.48
2018-03-31T10:53:47.840Z,94561.80
2018-03-31T10:56:14.478Z,94555.47
2018-03-31T10:58:44.110Z,94553.91
2018-03-31T11:01:10.711Z,94554.61
2018-03-31T11:03:38.612Z,94550.56
2018-03-31T11:06:03.993Z,94539.14
2018-03-31T11:08:30.674Z,94527.59
2018-03-31T11:10:57.825Z,94543.82
2018-03-31T11:13:25.805Z,94541.10
2018-03-31T11:15:51.174Z,94537.31
2018-03-31T11:18:17.780Z,94536.24
2018-03-31T11:20:44.458Z,94544.16
2018-03-31T11:23:11.085Z,94540.95
2018-03-31T11:25:38.742Z,94538.49
2018-03-31T11:28:04.321Z,94534.70
2018-03-31T11:30:34.104Z,94537.73
2018-03-31T11:33:00.780Z,94537.59
2018-03-31T11:35:27.396Z,94542.96
2018-03-31T11:37:56.625Z,94537.03
2018-03-31T11:40:23.280Z,94531.68
2018-03-31T11:42:51.109Z,94530.34
2018-03-31T11:45:16.599Z,94531.35
2018-03-31T11:47:43.318Z,94534.70
2018-03-31T11:50:15.235Z,94524.98
2018-03-31T11:52:39.957Z,94510.51
2018-03-31T11:55:07.944Z,94510.42
2018-03-31T11:57:33.233Z,94516.00
2018-03-31T11:59:59.870Z,94507.41
2018-03-31T12:02:26.542Z,94508.59
2018-03-31T12:04:53.181Z,94507.08
2018-03-31T12:07:19.818Z,94505.80
2018-03-31T12:09:46.455Z,94492.02
2018-03-31T12:12:13.112Z,94501.26
2018-03-31T12:14:39.787Z,94500.67
2018-03-31T12:17:06.467Z,94506.27
2018-03-31T12:19:33.107Z,94500.72
2018-03-31T12:21:59.783Z,94502.41
2018-03-31T12:24:26.400Z,94485.30
2018-03-31T12:26:53.029Z,94473.92
2018-03-31T12:29:19.737Z,94457.89
2018-03-31T12:31:46.402Z,94454.03
2018-03-31T12:34:13.015Z,94452.22
2018-03-31T12:36:39.750Z,94454.89
2018-03-31T12:39:06.339Z,94435.26
2018-03-31T12:41:34.938Z,94427.14
2018-03-31T12:43:59.637Z,94440.86
2018-03-31T12:46:26.282Z,94428.09
2018-03-31T12:48:52.949Z,94422.00
2018-03-31T12:51:19.596Z,94421.11
2018-03-31T12:53:46.288Z,94418.22
2018-03-31T12:56:12.956Z,94401.91
2018-03-31T12:58:39.599Z,94398.42
2018-03-31T13:01:06.231Z,94389.45
2018-03-31T13:03:32.940Z,94386.95
2018-03-31T13:05:59.578Z,94381.48
2018-03-31T13:08:26.214Z,94370.47
2018-03-31T13:10:52.950Z,94379.30
2018-03-31T13:13:19.600Z,94365.77
2018-03-31T13:15:47.265Z,94371.14
2018-03-31T13:18:13.903Z,94379.86
2018-03-31T13:20:40.521Z,94374.67
2018-03-31T13:23:07.196Z,94369.04
2018-03-31T13:25:33.839Z,94367.38
2018-03-31T13:28:00.509Z,94351.61
2018-03-31T13:30:29.923Z,94353.30
2018-03-31T13:32:56.566Z,94335.80
2018-03-31T13:35:23.309Z,94338.31
2018-03-31T13:37:49.941Z,94329.59
2018-03-31T13:40:17.872Z,94329.78
2018-03-31T13:42:43.177Z,94326.73
2018-03-31T13:45:09.849Z,94322.67
2018-03-31T13:47:36.537Z,94318.28
2018-03-31T13:50:03.183Z,94312.64
2018-03-31T13:52:29.910Z,94301.69
2018-03-31T13:54:56.547Z,94301.88
2018-03-31T13:57:24.593Z,94305.00
2018-03-31T13:59:49.956Z,94295.61
2018-03-31T14:02:16.583Z,94292.16
2018-03-31T14:04:43.520Z,94286.23
2018-03-31T14:07:10.149Z,94290.13
2018-03-31T14:09:36.788Z,94270.94
2018-03-31T14:12:03.494Z,94271.16
2018-03-31T14:14:30.171Z,94278.48
2018-03-31T14:16:56.905Z,94272.92
2018-03-31T14:19:23.552Z,94258.47
2018-03-31T14:21:50.198Z,94273.08
2018-03-31T14:24:16.869Z,94270.67
2018-03-31T14:26:43.514Z,94271.16
2018-03-31T14:29:11.660Z,94273.30
2018-03-31T14:31:39.626Z,94273.94
2018-03-31T14:34:06.346Z,94264.85
2018-03-31T14:36:33.026Z,94257.91
2018-03-31T14:38:59.826Z,94264.05
2018-03-31T14:41:26.455Z,94254.87
2018-03-31T14:43:53.102Z,94244.41
2018-03-31T14:46:19.826Z,94258.59
2018-03-31T14:48:46.500Z,94251.09
2018-03-31T14:51:14.450Z,94243.47
2018-03-31T14:53:39.761Z,94239.37
2018-03-31T14:56:09.668Z,94242.34
2018-03-31T14:58:36.318Z,94234.12
2018-03-31T15:01:02.950Z,94246.44
2018-03-31T15:03:29.687Z,94254.93
2018-03-31T15:05:56.354Z,94254.87
2018-03-31T15:08:23.028Z,94258.94
2018-03-31T15:10:52.251Z,94266.02
2018-03-31T15:13:16.416Z,94267.30
2018-03-31T15:15:43.141Z,94272.46
2018-03-31T15:18:09.813Z,94274.19
2018-03-31T15:20:36.499Z,94262.81
2018-03-31T15:23:03.135Z,94255.35
2018-03-31T15:25:29.851Z,94242.95
2018-03-31T15:27:56.446Z,94238.04
2018-03-31T15:30:23.092Z,94241.19
2018-03-31T15:32:49.740Z,94243.49
2018-03-31T15:35:19.394Z,94253.16
2018-03-31T15:37:46.467Z,94245.81
2018-03-31T15:40:13.248Z,94242.37
2018-03-31T15:42:39.873Z,94237.38
2018-03-31T15:45:06.526Z,94223.45
2018-03-31T15:47:33.221Z,94218.11
2018-03-31T15:49:59.934Z,94224.49
2018-03-31T15:52:26.578Z,94211.80
2018-03-31T15:54:53.198Z,94209.75
2018-03-31T15:57:19.892Z,94196.95
2018-03-31T15:59:46.494Z,94192.14
2018-03-31T16:02:13.253Z,94174.43
2018-03-31T16:04:39.855Z,94147.77
2018-03-31T16:07:06.520Z,94138.80
2018-03-31T16:09:36.399Z,94147.69
2018-03-31T16:12:03.063Z,94138.53
2018-03-31T16:14:29.802Z,94137.52
2018-03-31T16:16:56.399Z,94128.41
2018-03-31T16:19:23.119Z,94140.53
2018-03-31T16:21:49.779Z,94136.63
2018-03-31T16:24:16.475Z,94138.64
2018-03-31T16:26:43.200Z,94141.15
2018-03-31T16:29:12.586Z,94140.03
2018-03-31T16:31:39.224Z,94130.30
2018-03-31T16:34:05.853Z,94125.05
2018-03-31T16:36:35.597Z,94125.50
2018-03-31T16:39:02.279Z,94120.66
2018-03-31T16:41:28.950Z,94125.73
2018-03-31T16:43:55.640Z,94123.69
2018-03-31T16:46:22.272Z,94107.39
2018-03-31T16:48:48.990Z,94110.36
2018-03-31T16:51:15.584Z,94106.83
2018-03-31T16:53:42.381Z,94115.16
2018-03-31T16:56:09.468Z,94110.70
2018-03-31T16:58:37.373Z,94118.66
2018-03-31T17:01:02.788Z,94112.36
2018-03-31T17:03:32.346Z,94105.23
2018-03-31T17:05:59.069Z,94097.17
2018-03-31T17:08:25.705Z,94098.18
2018-03-31T17:10:52.482Z,94105.50
2018-03-31T17:13:19.123Z,94086.59
2018-03-31T17:15:45.766Z,94081.50
2018-03-31T17:18:12.379Z,94085.29
2018-03-31T17:20:39.061Z,94095.48
2018-03-31T17:23:05.780Z,94084.16
2018-03-31T17:25:34.256Z,94077.65
2018-03-31T17:28:00.972Z,94069.96
2018-03-31T17:30:27.724Z,94084.22
2018-03-31T17:32:54.363Z,94077.65
2018-03-31T17:35:20.959Z,94069.03
2018-03-31T17:37:47.765Z,94062.81
2018-03-31T17:40:17.293Z,94068.44
2018-03-31T17:42:43.884Z,94060.56
2018-03-31T17:45:10.571Z,94071.14
2018-03-31T17:47:38.616Z,94077.23
2018-03-31T17:50:03.989Z,94080.83
2018-03-31T17:52:30.622Z,94081.84
2018-03-31T17:54:57.277Z,94078.31
2018-03-31T17:57:23.978Z,94087.36
2018-03-31T17:59:52.146Z,94077.55
2018-03-31T18:02:17.227Z,94077.55
2018-03-31T18:04:43.896Z,94068.66
2018-03-31T18:07:10.488Z,94063.74
2018-03-31T18:09:37.173Z,94053.92
2018-03-31T18:14:30.514Z,94028.27
2018-03-31T18:16:57.153Z,94034.52
2018-03-31T18:19:23.955Z,94028.59
2018-03-31T18:21:50.629Z,94031.58
2018-03-31T18:24:17.234Z,94039.45
2018-03-31T18:26:43.913Z,94031.13
2018-03-31T18:29:10.557Z,94063.23
2018-03-31T18:31:37.231Z,94021.66
2018-03-31T18:34:06.743Z,94023.61
2018-03-31T18:36:36.647Z,94031.82
2018-03-31T18:39:03.384Z,94025.16
2018-03-31T18:41:29.996Z,94004.53
2018-03-31T18:43:58.752Z,94019.30
2018-03-31T18:46:26.182Z,94005.64
2018-03-31T18:48:52.985Z,94016.72
2018-03-31T18:51:19.653Z,94025.20
2018-03-31T18:53:46.258Z,93998.47
2018-03-31T18:56:12.917Z,94020.38
2018-03-31T18:58:39.947Z,93997.24
2018-03-31T19:01:06.632Z,94003.98
2018-03-31T19:03:33.275Z,94007.25
2018-03-31T19:06:00.044Z,93998.70
2018-03-31T19:08:26.644Z,93986.97
2018-03-31T19:10:58.997Z,93996.77
2018-03-31T19:13:25.603Z,93988.70
2018-03-31T19:15:52.330Z,93972.62
2018-03-31T19:18:18.969Z,93983.42
2018-03-31T19:20:45.643Z,93989.61
2018-03-31T19:23:12.352Z,93968.52
2018-03-31T19:25:38.991Z,93977.92
2018-03-31T19:28:05.750Z,93965.73
2018-03-31T19:30:32.413Z,93974.70
2018-03-31T19:32:59.098Z,93952.85
2018-03-31T19:35:27.038Z,93961.44
2018-03-31T19:37:52.323Z,93971.52
2018-03-31T19:40:19.023Z,93961.33
2018-03-31T19:42:45.688Z,93975.77
2018-03-31T19:45:12.377Z,93967.33
2018-03-31T19:47:39.121Z,93961.94
2018-03-31T19:50:05.751Z,93947.17
2018-03-31T19:52:32.395Z,93937.17
2018-03-31T19:54:58.998Z,93909.97
2018-03-31T19:57:25.696Z,93909.89
2018-03-31T19:59:52.336Z,93890.98
2018-03-31T20:02:18.982Z,93896.27
2018-03-31T20:04:45.729Z,93890.34
2018-03-31T20:07:14.997Z,93898.29
2018-03-31T20:09:41.632Z,93886.45
2018-03-31T20:12:08.339Z,93889.76
2018-03-31T20:14:34.917Z,93892.69
2018-03-31T20:17:01.542Z,93875.78
2018-03-31T20:19:28.216Z,93876.05
2018-03-31T20:21:54.950Z,93873.84
2018-03-31T20:24:21.566Z,93867.47
2018-03-31T20:26:48.203Z,93862.27
2018-03-31T20:29:14.866Z,93857.84
2018-03-31T20:31:42.500Z,93847.17
2018-03-31T20:34:08.110Z,93842.46
2018-03-31T20:36:34.751Z,93831.74
2018-03-31T20:39:04.578Z,93819.99
2018-03-31T20:41:31.246Z,93813.88
2018-03-31T20:44:01.159Z,93816.84
2018-03-31T20:46:30.617Z,93805.75
2018-03-31T20:49:00.440Z,93814.18
2018-03-31T20:51:27.170Z,93803.97
2018-03-31T20:53:53.768Z,93798.53
2018-03-31T20:56:20.465Z,93791.71
2018-03-31T20:58:47.171Z,93801.70
2018-03-31T21:01:13.751Z,93780.62
2018-03-31T21:03:40.405Z,93778.01
2018-03-31T21:06:07.162Z,93784.67
2018-03-31T21:08:36.380Z,93772.84
2018-03-31T21:11:04.693Z,93765.80
2018-03-31T21:13:31.376Z,93757.95
2018-03-31T21:15:58.018Z,93757.47
2018-03-31T21:18:24.657Z,93750.45
2018-03-31T21:20:51.321Z,93741.13
2018-03-31T21:23:17.965Z,93733.34
2018-03-31T21:25:44.725Z,93736.23
2018-03-31T21:28:11.313Z,93722.08
2018-03-31T21:30:38.089Z,93737.11
2018-03-31T21:33:04.772Z,93724.92
2018-03-31T21:35:31.455Z,93724.74
2018-03-31T21:37:58.086Z,93709.50
2018-03-31T21:40:24.745Z,93715.84
2018-03-31T21:42:51.419Z,93707.35
2018-03-31T21:45:18.038Z,93685.07
2018-03-31T21:47:50.075Z,93681.87
2018-03-31T21:50:14.237Z,93697.01
2018-03-31T21:52:40.850Z,93670.13
2018-03-31T21:55:07.570Z,93679.91
2018-03-31T21:57:34.166Z,93665.97
2018-03-31T22:00:00.881Z,93673.44
2018-03-31T22:02:27.553Z,93669.94
2018-03-31T22:04:54.232Z,93673.72
2018-03-31T22:07:20.895Z,93667.99
2018-03-31T22:09:47.533Z,93655.89
2018-03-31T22:12:14.216Z,93638.52
2018-03-31T22:14:40.882Z,93646.55
2018-03-31T22:17:07.526Z,93658.17
2018-03-31T22:19:34.231Z,93628.17
2018-03-31T22:22:00.803Z,93629.92
2018-03-31T22:24:27.476Z,93620.02
2018-03-31T22:26:54.147Z,93614.03
2018-03-31T22:29:20.753Z,93616.42
2018-03-31T22:31:47.426Z,93598.78
2018-03-31T22:34:14.027Z,93609.77
2018-03-31T22:36:40.674Z,93603.38
2018-03-31T22:39:07.415Z,93613.45
2018-03-31T22:41:34.102Z,93584.99
2018-03-31T22:44:02.893Z,93574.74
2018-03-31T22:46:29.508Z,93594.24
2018-03-31T22:48:56.219Z,93602.19
2018-03-31T22:51:22.913Z,93581.13
2018-03-31T22:53:49.553Z,93560.04
2018-03-31T22:56:16.294Z,93568.36
2018-03-31T22:58:43.034Z,93574.46
2018-03-31T23:01:12.537Z,93541.58
2018-03-31T23:03:39.178Z,93532.70
2018-03-31T23:06:05.813Z,93511.47
2018-03-31T23:08:32.423Z,93504.72
2018-03-31T23:10:59.093Z,93504.62
2018-03-31T23:13:25.748Z,93484.51
2018-03-31T23:15:52.371Z,93465.48
2018-03-31T23:18:18.978Z,93449.52
2018-03-31T23:20:45.667Z,93467.52
2018-03-31T23:23:12.351Z,93450.97
2018-03-31T23:25:38.994Z,93455.69
2018-03-31T23:28:05.770Z,93439.81
2018-03-31T23:30:32.284Z,93421.50
2018-03-31T23:32:58.883Z,93413.19
2018-03-31T23:35:25.547Z,93403.80
2018-03-31T23:37:52.598Z,93403.86
2018-03-31T23:40:19.265Z,93396.50
2018-03-31T23:42:45.921Z,93400.35
2018-03-31T23:45:15.667Z,93395.55
2018-03-31T23:47:42.332Z,93391.77
2018-03-31T23:50:08.973Z,93406.94
2018-03-31T23:52:35.679Z,93389.38
2018-03-31T23:55:02.316Z,93393.25
2018-03-31T23:57:29.026Z,93394.00
2018-03-31T23:59:55.637Z,93387.24
